Kossau — V2CV9 — position and weather

sailwx.info

Track history (hours):
 
Tides and Currents Weather Stations Pressure Air Temp Water Temp Dewpoint Dewpoint Depression Visibility Wind Speed Wind Dir Waves Ship Positions

Kossau

Last reported at 2018-Feb-23 02:58 UTC. Time now 2018-Feb-23 03:19 UTC.
Position N 43°19' W 001°54'.

Length 88 m; draft 3.5 m.

Type: Cargo ship. MMSI: 305122000.

Date/timePositionNaut miles runAvg speedWind from/ knotsBaromVisibWave heightAir tempDewpointWater temp
2018-Feb-23 02:58N 43°19' W 001°54'0 0.0
2018-Feb-23 02:25N 43°19' W 001°54'0 0.0
2018-Feb-23 01:58N 43°19' W 001°54'0 0.0
2018-Feb-23 01:28N 43°19' W 001°54'0 0.0
2018-Feb-23 00:58N 43°19' W 001°54'0 0.0
2018-Feb-23 00:28N 43°19' W 001°54'0 0.0
2018-Feb-22 23:55N 43°19' W 001°54'0 0.0
2018-Feb-22 23:25N 43°19' W 001°54'1 1.5
2018-Feb-22 23:00N 43°19' W 001°55'4 8.6
2018-Feb-22 22:30N 43°22' W 001°59'510.4
2018-Feb-22 22:01N 43°25' W 002°05'510.5
2018-Feb-22 21:31N 43°28' W 002°11'5 9.9
2018-Feb-22 21:00N 43°31' W 002°16'510.1
2018-Feb-22 20:31N 43°34' W 002°22'5 9.5
2018-Feb-22 20:01N 43°35' W 002°28'510.3
2018-Feb-22 19:30N 43°34' W 002°35'510.7
2018-Feb-22 19:01N 43°33' W 002°43'510.8
2018-Feb-22 18:31N 43°31' W 002°50'510.6
2018-Feb-22 18:01N 43°30' W 002°57'510.8
2018-Feb-22 17:30N 43°26' W 003°03'4 8.1
2018-Feb-22 17:00N 43°22' W 003°04'4 8.2
2018-Feb-22 16:31N 43°19' W 003°01'1 1.2
2018-Feb-22 16:01N 43°19' W 003°00'0 0.0
2018-Feb-22 15:17N 43°19' W 003°00'0 0.0
2018-Feb-22 14:56N 43°19' W 003°00'0 0.0
2018-Feb-22 14:26N 43°19' W 003°00'0 0.0
2018-Feb-22 13:53N 43°19' W 003°00'0 0.0
2018-Feb-22 13:20N 43°19' W 003°00'0 0.0
2018-Feb-22 12:59N 43°19' W 003°00'0 0.0
2018-Feb-22 12:29N 43°19' W 003°00'0 0.0
2018-Feb-22 11:59N 43°19' W 003°00'0 0.0
2018-Feb-22 11:26N 43°19' W 003°00'0 0.0
2018-Feb-22 10:59N 43°19' W 003°00'0 0.0
2018-Feb-22 10:29N 43°19' W 003°00'0 0.0
2018-Feb-22 09:56N 43°19' W 003°00'0 0.0
2018-Feb-22 09:20N 43°19' W 003°00'0 0.0
2018-Feb-22 08:56N 43°19' W 003°00'0 0.0
2018-Feb-22 08:26N 43°19' W 003°00'0 0.0
2018-Feb-22 07:59N 43°19' W 003°00'0 0.0
2018-Feb-22 07:29N 43°19' W 003°00'0 0.0
2018-Feb-22 06:59N 43°19' W 003°00'0 0.0
2018-Feb-22 06:29N 43°19' W 003°00'0 0.0
2018-Feb-22 05:59N 43°19' W 003°00'0 0.0
2018-Feb-22 05:29N 43°19' W 003°00'0 0.0
2018-Feb-22 04:59N 43°19' W 003°00'0 0.0
2018-Feb-22 04:29N 43°19' W 003°00'0 0.0
2018-Feb-22 03:59N 43°19' W 003°00'0 0.0
2018-Feb-22 03:29N 43°19' W 003°00'0 0.0
2018-Feb-22 02:59N 43°19' W 003°00'0 0.0
2018-Feb-22 02:26N 43°19' W 003°00'0 0.0
2018-Feb-22 01:59N 43°19' W 003°00'0 0.0
2018-Feb-22 01:29N 43°19' W 003°00'0 0.0
2018-Feb-22 00:59N 43°19' W 003°00'0 0.0
2018-Feb-22 00:27N 43°19' W 003°00'0 0.0
2018-Feb-22 00:00N 43°19' W 003°00'0 0.0
2018-Feb-21 23:30N 43°19' W 003°00'0 0.0
2018-Feb-21 22:57N 43°19' W 003°00'0 0.0
2018-Feb-21 22:30N 43°19' W 003°00'0 0.0
2018-Feb-21 22:00N 43°19' W 003°00'0 0.0
2018-Feb-21 21:21N 43°19' W 003°00'0 0.0
2018-Feb-21 20:57N 43°19' W 003°00'0 0.0
2018-Feb-21 20:27N 43°19' W 003°00'0 0.0
2018-Feb-21 20:00N 43°19' W 003°00'0 0.0
2018-Feb-21 19:30N 43°19' W 003°00'0 0.0
2018-Feb-21 19:00N 43°19' W 003°00'0 0.0
2018-Feb-21 18:27N 43°19' W 003°00'0 0.0
2018-Feb-21 17:54N 43°19' W 003°00'0 0.0
2018-Feb-21 17:30N 43°19' W 003°00'0 0.0
2018-Feb-21 17:00N 43°19' W 003°00'0 0.0
2018-Feb-21 16:30N 43°19' W 003°00'0 0.0
2018-Feb-21 16:00N 43°19' W 003°00'0 0.0
2018-Feb-21 15:30N 43°19' W 003°00'0 0.0
2018-Feb-21 15:00N 43°19' W 003°00'0 0.0
2018-Feb-21 14:30N 43°19' W 003°00'0 0.0
2018-Feb-21 13:57N 43°19' W 003°00'0 0.0
2018-Feb-21 13:30N 43°19' W 003°00'0 0.0
2018-Feb-21 13:00N 43°19' W 003°00'0 0.0
2018-Feb-21 12:30N 43°19' W 003°00'0 0.0
2018-Feb-21 12:00N 43°19' W 003°00'0 0.0
2018-Feb-21 11:27N 43°19' W 003°00'0 0.0
2018-Feb-21 11:00N 43°19' W 003°00'0 0.0
2018-Feb-21 10:30N 43°19' W 003°00'0 0.0
2018-Feb-21 09:57N 43°19' W 003°00'0 0.0
2018-Feb-21 09:27N 43°19' W 003°00'0 0.0
2018-Feb-21 09:00N 43°19' W 003°00'0 0.0
2018-Feb-21 08:30N 43°19' W 003°00'0 0.0
2018-Feb-21 08:00N 43°19' W 003°00'0 0.0
2018-Feb-21 07:30N 43°19' W 003°00'0 0.0
2018-Feb-21 07:00N 43°19' W 003°00'0 0.0
2018-Feb-21 06:30N 43°19' W 003°00'0 0.0
2018-Feb-21 06:00N 43°19' W 003°00'0 0.0
2018-Feb-21 05:30N 43°19' W 003°00'0 0.0
2018-Feb-21 05:00N 43°19' W 003°00'0 0.0
2018-Feb-21 04:30N 43°19' W 003°00'0 0.0
2018-Feb-21 03:57N 43°19' W 003°00'0 0.0
2018-Feb-21 03:30N 43°19' W 003°00'0 0.0
2018-Feb-21 02:57N 43°19' W 003°00'0 0.0
2018-Feb-21 02:30N 43°19' W 003°00'0 0.0
2018-Feb-21 02:00N 43°19' W 003°00'0 0.0
2018-Feb-21 01:30N 43°19' W 003°00'0 0.0
2018-Feb-21 01:00N 43°19' W 003°00'0 0.0
2018-Feb-21 00:27N 43°19' W 003°00'0 0.0
2018-Feb-21 00:00N 43°19' W 003°00'0 0.0
2018-Feb-20 23:24N 43°19' W 003°00'0 0.0
2018-Feb-20 23:00N 43°19' W 003°00'0 0.0
2018-Feb-20 22:30N 43°19' W 003°00'0 0.0
2018-Feb-20 22:00N 43°19' W 003°00'0 0.0
2018-Feb-20 21:30N 43°19' W 003°00'0 0.0
2018-Feb-20 20:57N 43°19' W 003°00'0 0.0
2018-Feb-20 20:27N 43°19' W 003°00'0 0.0
2018-Feb-20 19:57N 43°19' W 003°00'0 0.0
2018-Feb-20 19:30N 43°19' W 003°00'0 0.0
2018-Feb-20 19:00N 43°19' W 003°00'0 0.0
2018-Feb-20 18:30N 43°19' W 003°00'0 0.0
2018-Feb-20 17:57N 43°19' W 003°00'0 0.0
2018-Feb-20 17:30N 43°19' W 003°00'0 0.0
2018-Feb-20 17:00N 43°19' W 003°00'0 0.0
2018-Feb-20 16:30N 43°19' W 003°00'0 0.0
2018-Feb-20 16:00N 43°19' W 003°00'0 0.0
2018-Feb-20 15:30N 43°19' W 003°00'0 0.0
2018-Feb-20 15:00N 43°19' W 003°00'0 0.0
2018-Feb-20 14:30N 43°19' W 003°00'0 0.0
2018-Feb-20 14:00N 43°19' W 003°00'0 0.0
2018-Feb-20 13:30N 43°19' W 003°00'0 0.0
2018-Feb-20 13:00N 43°19' W 003°00'0 0.0
2018-Feb-20 12:30N 43°19' W 003°00'0 0.0
2018-Feb-20 11:48N 43°19' W 003°00'0 0.0
2018-Feb-20 11:27N 43°19' W 003°00'0 0.0
2018-Feb-20 10:51N 43°19' W 003°00'0 0.0
2018-Feb-20 10:30N 43°19' W 003°00'0 0.0
2018-Feb-20 10:00N 43°19' W 003°00'0 0.0
2018-Feb-20 09:30N 43°19' W 003°00'0 0.0
2018-Feb-20 08:57N 43°19' W 003°00'0 0.0
2018-Feb-20 08:24N 43°19' W 003°00'0 0.0
2018-Feb-20 08:00N 43°19' W 003°00'0 0.0
2018-Feb-20 07:30N 43°19' W 003°00'0 0.0
2018-Feb-20 07:00N 43°19' W 003°00'0 0.0
2018-Feb-20 06:27N 43°19' W 003°00'0 0.0
2018-Feb-20 06:00N 43°19' W 003°00'0 0.0
2018-Feb-20 05:30N 43°19' W 003°00'0 0.0
2018-Feb-20 05:00N 43°19' W 003°00'0 0.0
2018-Feb-20 04:30N 43°19' W 003°00'0 0.0
2018-Feb-20 04:00N 43°19' W 003°00'0 0.0
2018-Feb-20 03:30N 43°19' W 003°00'0 0.0
2018-Feb-20 02:57N 43°19' W 003°00'0 0.0
2018-Feb-20 02:30N 43°19' W 003°00'0 0.0
2018-Feb-20 02:00N 43°19' W 003°00'0 0.0
2018-Feb-20 01:30N 43°19' W 003°00'0 0.0
2018-Feb-20 01:00N 43°19' W 003°00'0 0.0
2018-Feb-20 00:24N 43°19' W 003°00'0 0.0
2018-Feb-20 00:00N 43°19' W 003°00'0 0.0
2018-Feb-19 23:27N 43°19' W 003°00'0 0.0
2018-Feb-19 22:57N 43°19' W 003°00'0 0.0
2018-Feb-19 22:30N 43°19' W 003°00'0 0.0
2018-Feb-19 22:00N 43°19' W 003°00'0 0.0
2018-Feb-19 21:24N 43°19' W 003°00'0 0.0
2018-Feb-19 21:00N 43°19' W 003°00'0 0.0
2018-Feb-19 20:30N 43°19' W 003°00'0 0.0
2018-Feb-19 20:00N 43°19' W 003°00'0 0.0
2018-Feb-19 19:30N 43°19' W 003°00'0 0.0
2018-Feb-19 19:00N 43°19' W 003°00'0 0.0
2018-Feb-19 18:30N 43°19' W 003°00'0 0.0
2018-Feb-19 18:00N 43°19' W 003°00'0 0.0
2018-Feb-19 17:30N 43°19' W 003°00'0 0.6
2018-Feb-19 17:00N 43°19' W 003°00'4 7.3
2018-Feb-19 16:30N 43°22' W 003°03'5 9.7
2018-Feb-19 16:00N 43°26' W 003°07'2 3.6
2018-Feb-19 15:30N 43°28' W 003°08'1 1.7
2018-Feb-19 15:00N 43°28' W 003°09'13 8.4
2018-Feb-19 13:31N 43°40' W 003°15'0 8.7
2018-Feb-19 13:28N 43°40' W 003°16'  
2018-Feb-16 14:41N 52°48' W 005°41'210.5
2018-Feb-16 14:30N 52°50' W 005°41'611.8
2018-Feb-16 14:00N 52°56' W 005°39'65 9.8
2018-Feb-16 07:24N 53°60' W 005°24'4 9.6
2018-Feb-16 06:56N 54°04' W 005°23'4 9.9
2018-Feb-16 06:30N 54°09' W 005°22'510.0
2018-Feb-16 06:00N 54°14' W 005°21'5 9.9
2018-Feb-16 05:30N 54°19' W 005°20'5 9.7
2018-Feb-16 05:00N 54°23' W 005°19'5 9.8
2018-Feb-16 04:30N 54°28' W 005°18'5 9.3
2018-Feb-16 04:00N 54°33' W 005°17'4 8.7
2018-Feb-16 03:30N 54°37' W 005°17'4 8.3
2018-Feb-16 03:00N 54°41' W 005°17'4 8.0
2018-Feb-16 02:30N 54°45' W 005°18'4 7.7
2018-Feb-16 02:00N 54°49' W 005°17'4 7.4
2018-Feb-16 01:30N 54°53' W 005°17'50 9.0
2018-Feb-15 19:55N 55°42' W 004°59'410.3
2018-Feb-15 19:30N 55°46' W 004°58'510.1
2018-Feb-15 19:00N 55°51' W 004°57'510.0
2018-Feb-15 18:30N 55°56' W 004°54'5 0.1
2018-Feb-13 19:48N 55°58' W 004°46'2 6.7
2018-Feb-13 19:30N 55°58' W 004°50'3 6.7
2018-Feb-13 19:00N 55°56' W 004°55'3 6.8
2018-Feb-13 18:30N 55°53' W 004°56'4 7.2
2018-Feb-13 18:00N 55°49' W 004°57'4 7.3
2018-Feb-13 17:30N 55°46' W 004°58'4 6.8
2018-Feb-13 16:58N 55°42' W 004°59'45 9.7
2018-Feb-13 12:17N 54°58' W 005°17'310.2
2018-Feb-13 12:01N 54°55' W 005°16'510.3
2018-Feb-13 11:31N 54°50' W 005°14'510.0
2018-Feb-13 11:00N 54°45' W 005°12'5 9.4
2018-Feb-13 10:31N 54°40' W 005°10'5 8.9
2018-Feb-13 09:59N 54°36' W 005°09'  
Track history (hours):
 
Tides and Currents Weather Stations Pressure Air Temp Water Temp Dewpoint Dewpoint Depression Visibility Wind Speed Wind Dir Waves Ship Positions

Kossau

Last reported at 2018-Feb-23 02:58 UTC. Time now 2018-Feb-23 03:19 UTC.
Position N 43°19' W 001°54'.

Length 88 m; draft 3.5 m.

Type: Cargo ship. MMSI: 305122000.

Date/timePositionNaut miles runAvg speedWind from/ knotsBaromVisibWave heightAir tempDewpointWater temp
2018-Feb-23 02:58N 43°19' W 001°54'0 0.0
2018-Feb-23 02:25N 43°19' W 001°54'0 0.0
2018-Feb-23 01:58N 43°19' W 001°54'0 0.0
2018-Feb-23 01:28N 43°19' W 001°54'0 0.0
2018-Feb-23 00:58N 43°19' W 001°54'0 0.0
2018-Feb-23 00:28N 43°19' W 001°54'0 0.0
2018-Feb-22 23:55N 43°19' W 001°54'0 0.0
2018-Feb-22 23:25N 43°19' W 001°54'1 1.5
2018-Feb-22 23:00N 43°19' W 001°55'4 8.6
2018-Feb-22 22:30N 43°22' W 001°59'510.4
2018-Feb-22 22:01N 43°25' W 002°05'510.5
2018-Feb-22 21:31N 43°28' W 002°11'5 9.9
2018-Feb-22 21:00N 43°31' W 002°16'510.1
2018-Feb-22 20:31N 43°34' W 002°22'5 9.5
2018-Feb-22 20:01N 43°35' W 002°28'510.3
2018-Feb-22 19:30N 43°34' W 002°35'510.7
2018-Feb-22 19:01N 43°33' W 002°43'510.8
2018-Feb-22 18:31N 43°31' W 002°50'510.6
2018-Feb-22 18:01N 43°30' W 002°57'510.8
2018-Feb-22 17:30N 43°26' W 003°03'4 8.1
2018-Feb-22 17:00N 43°22' W 003°04'4 8.2
2018-Feb-22 16:31N 43°19' W 003°01'1 1.2
2018-Feb-22 16:01N 43°19' W 003°00'0 0.0
2018-Feb-22 15:17N 43°19' W 003°00'0 0.0
2018-Feb-22 14:56N 43°19' W 003°00'0 0.0
2018-Feb-22 14:26N 43°19' W 003°00'0 0.0
2018-Feb-22 13:53N 43°19' W 003°00'0 0.0
2018-Feb-22 13:20N 43°19' W 003°00'0 0.0
2018-Feb-22 12:59N 43°19' W 003°00'0 0.0
2018-Feb-22 12:29N 43°19' W 003°00'0 0.0
2018-Feb-22 11:59N 43°19' W 003°00'0 0.0
2018-Feb-22 11:26N 43°19' W 003°00'0 0.0
2018-Feb-22 10:59N 43°19' W 003°00'0 0.0
2018-Feb-22 10:29N 43°19' W 003°00'0 0.0
2018-Feb-22 09:56N 43°19' W 003°00'0 0.0
2018-Feb-22 09:20N 43°19' W 003°00'0 0.0
2018-Feb-22 08:56N 43°19' W 003°00'0 0.0
2018-Feb-22 08:26N 43°19' W 003°00'0 0.0
2018-Feb-22 07:59N 43°19' W 003°00'0 0.0
2018-Feb-22 07:29N 43°19' W 003°00'0 0.0
2018-Feb-22 06:59N 43°19' W 003°00'0 0.0
2018-Feb-22 06:29N 43°19' W 003°00'0 0.0
2018-Feb-22 05:59N 43°19' W 003°00'0 0.0
2018-Feb-22 05:29N 43°19' W 003°00'0 0.0
2018-Feb-22 04:59N 43°19' W 003°00'0 0.0
2018-Feb-22 04:29N 43°19' W 003°00'0 0.0
2018-Feb-22 03:59N 43°19' W 003°00'0 0.0
2018-Feb-22 03:29N 43°19' W 003°00'0 0.0
2018-Feb-22 02:59N 43°19' W 003°00'0 0.0
2018-Feb-22 02:26N 43°19' W 003°00'0 0.0
2018-Feb-22 01:59N 43°19' W 003°00'0 0.0
2018-Feb-22 01:29N 43°19' W 003°00'0 0.0
2018-Feb-22 00:59N 43°19' W 003°00'0 0.0
2018-Feb-22 00:27N 43°19' W 003°00'0 0.0
2018-Feb-22 00:00N 43°19' W 003°00'0 0.0
2018-Feb-21 23:30N 43°19' W 003°00'0 0.0
2018-Feb-21 22:57N 43°19' W 003°00'0 0.0
2018-Feb-21 22:30N 43°19' W 003°00'0 0.0
2018-Feb-21 22:00N 43°19' W 003°00'0 0.0
2018-Feb-21 21:21N 43°19' W 003°00'0 0.0
2018-Feb-21 20:57N 43°19' W 003°00'0 0.0
2018-Feb-21 20:27N 43°19' W 003°00'0 0.0
2018-Feb-21 20:00N 43°19' W 003°00'0 0.0
2018-Feb-21 19:30N 43°19' W 003°00'0 0.0
2018-Feb-21 19:00N 43°19' W 003°00'0 0.0
2018-Feb-21 18:27N 43°19' W 003°00'0 0.0
2018-Feb-21 17:54N 43°19' W 003°00'0 0.0
2018-Feb-21 17:30N 43°19' W 003°00'0 0.0
2018-Feb-21 17:00N 43°19' W 003°00'0 0.0
2018-Feb-21 16:30N 43°19' W 003°00'0 0.0
2018-Feb-21 16:00N 43°19' W 003°00'0 0.0
2018-Feb-21 15:30N 43°19' W 003°00'0 0.0
2018-Feb-21 15:00N 43°19' W 003°00'0 0.0
2018-Feb-21 14:30N 43°19' W 003°00'0 0.0
2018-Feb-21 13:57N 43°19' W 003°00'0 0.0
2018-Feb-21 13:30N 43°19' W 003°00'0 0.0
2018-Feb-21 13:00N 43°19' W 003°00'0 0.0
2018-Feb-21 12:30N 43°19' W 003°00'0 0.0
2018-Feb-21 12:00N 43°19' W 003°00'0 0.0
2018-Feb-21 11:27N 43°19' W 003°00'0 0.0
2018-Feb-21 11:00N 43°19' W 003°00'0 0.0
2018-Feb-21 10:30N 43°19' W 003°00'0 0.0
2018-Feb-21 09:57N 43°19' W 003°00'0 0.0
2018-Feb-21 09:27N 43°19' W 003°00'0 0.0
2018-Feb-21 09:00N 43°19' W 003°00'0 0.0
2018-Feb-21 08:30N 43°19' W 003°00'0 0.0
2018-Feb-21 08:00N 43°19' W 003°00'0 0.0
2018-Feb-21 07:30N 43°19' W 003°00'0 0.0
2018-Feb-21 07:00N 43°19' W 003°00'0 0.0
2018-Feb-21 06:30N 43°19' W 003°00'0 0.0
2018-Feb-21 06:00N 43°19' W 003°00'0 0.0
2018-Feb-21 05:30N 43°19' W 003°00'0 0.0
2018-Feb-21 05:00N 43°19' W 003°00'0 0.0
2018-Feb-21 04:30N 43°19' W 003°00'0 0.0
2018-Feb-21 03:57N 43°19' W 003°00'0 0.0
2018-Feb-21 03:30N 43°19' W 003°00'0 0.0
2018-Feb-21 02:57N 43°19' W 003°00'0 0.0
2018-Feb-21 02:30N 43°19' W 003°00'0 0.0
2018-Feb-21 02:00N 43°19' W 003°00'0 0.0
2018-Feb-21 01:30N 43°19' W 003°00'0 0.0
2018-Feb-21 01:00N 43°19' W 003°00'0 0.0
2018-Feb-21 00:27N 43°19' W 003°00'0 0.0
2018-Feb-21 00:00N 43°19' W 003°00'0 0.0
2018-Feb-20 23:24N 43°19' W 003°00'0 0.0
2018-Feb-20 23:00N 43°19' W 003°00'0 0.0
2018-Feb-20 22:30N 43°19' W 003°00'0 0.0
2018-Feb-20 22:00N 43°19' W 003°00'0 0.0
2018-Feb-20 21:30N 43°19' W 003°00'0 0.0
2018-Feb-20 20:57N 43°19' W 003°00'0 0.0
2018-Feb-20 20:27N 43°19' W 003°00'0 0.0
2018-Feb-20 19:57N 43°19' W 003°00'0 0.0
2018-Feb-20 19:30N 43°19' W 003°00'0 0.0
2018-Feb-20 19:00N 43°19' W 003°00'0 0.0
2018-Feb-20 18:30N 43°19' W 003°00'0 0.0
2018-Feb-20 17:57N 43°19' W 003°00'0 0.0
2018-Feb-20 17:30N 43°19' W 003°00'0 0.0
2018-Feb-20 17:00N 43°19' W 003°00'0 0.0
2018-Feb-20 16:30N 43°19' W 003°00'0 0.0
2018-Feb-20 16:00N 43°19' W 003°00'0 0.0
2018-Feb-20 15:30N 43°19' W 003°00'0 0.0
2018-Feb-20 15:00N 43°19' W 003°00'0 0.0
2018-Feb-20 14:30N 43°19' W 003°00'0 0.0
2018-Feb-20 14:00N 43°19' W 003°00'0 0.0
2018-Feb-20 13:30N 43°19' W 003°00'0 0.0
2018-Feb-20 13:00N 43°19' W 003°00'0 0.0
2018-Feb-20 12:30N 43°19' W 003°00'0 0.0
2018-Feb-20 11:48N 43°19' W 003°00'0 0.0
2018-Feb-20 11:27N 43°19' W 003°00'0 0.0
2018-Feb-20 10:51N 43°19' W 003°00'0 0.0
2018-Feb-20 10:30N 43°19' W 003°00'0 0.0
2018-Feb-20 10:00N 43°19' W 003°00'0 0.0
2018-Feb-20 09:30N 43°19' W 003°00'0 0.0
2018-Feb-20 08:57N 43°19' W 003°00'0 0.0
2018-Feb-20 08:24N 43°19' W 003°00'0 0.0
2018-Feb-20 08:00N 43°19' W 003°00'0 0.0
2018-Feb-20 07:30N 43°19' W 003°00'0 0.0
2018-Feb-20 07:00N 43°19' W 003°00'0 0.0
2018-Feb-20 06:27N 43°19' W 003°00'0 0.0
2018-Feb-20 06:00N 43°19' W 003°00'0 0.0
2018-Feb-20 05:30N 43°19' W 003°00'0 0.0
2018-Feb-20 05:00N 43°19' W 003°00'0 0.0
2018-Feb-20 04:30N 43°19' W 003°00'0 0.0
2018-Feb-20 04:00N 43°19' W 003°00'0 0.0
2018-Feb-20 03:30N 43°19' W 003°00'0 0.0
2018-Feb-20 02:57N 43°19' W 003°00'0 0.0
2018-Feb-20 02:30N 43°19' W 003°00'0 0.0
2018-Feb-20 02:00N 43°19' W 003°00'0 0.0
2018-Feb-20 01:30N 43°19' W 003°00'0 0.0
2018-Feb-20 01:00N 43°19' W 003°00'0 0.0
2018-Feb-20 00:24N 43°19' W 003°00'0 0.0
2018-Feb-20 00:00N 43°19' W 003°00'0 0.0
2018-Feb-19 23:27N 43°19' W 003°00'0 0.0
2018-Feb-19 22:57N 43°19' W 003°00'0 0.0
2018-Feb-19 22:30N 43°19' W 003°00'0 0.0
2018-Feb-19 22:00N 43°19' W 003°00'0 0.0
2018-Feb-19 21:24N 43°19' W 003°00'0 0.0
2018-Feb-19 21:00N 43°19' W 003°00'0 0.0
2018-Feb-19 20:30N 43°19' W 003°00'0 0.0
2018-Feb-19 20:00N 43°19' W 003°00'0 0.0
2018-Feb-19 19:30N 43°19' W 003°00'0 0.0
2018-Feb-19 19:00N 43°19' W 003°00'0 0.0
2018-Feb-19 18:30N 43°19' W 003°00'0 0.0
2018-Feb-19 18:00N 43°19' W 003°00'0 0.0
2018-Feb-19 17:30N 43°19' W 003°00'0 0.6
2018-Feb-19 17:00N 43°19' W 003°00'4 7.3
2018-Feb-19 16:30N 43°22' W 003°03'5 9.7
2018-Feb-19 16:00N 43°26' W 003°07'2 3.6
2018-Feb-19 15:30N 43°28' W 003°08'1 1.7
2018-Feb-19 15:00N 43°28' W 003°09'13 8.4
2018-Feb-19 13:31N 43°40' W 003°15'0 8.7
2018-Feb-19 13:28N 43°40' W 003°16'  
2018-Feb-16 14:41N 52°48' W 005°41'210.5
2018-Feb-16 14:30N 52°50' W 005°41'611.8
2018-Feb-16 14:00N 52°56' W 005°39'65 9.8
2018-Feb-16 07:24N 53°60' W 005°24'4 9.6
2018-Feb-16 06:56N 54°04' W 005°23'4 9.9
2018-Feb-16 06:30N 54°09' W 005°22'510.0
2018-Feb-16 06:00N 54°14' W 005°21'5 9.9
2018-Feb-16 05:30N 54°19' W 005°20'5 9.7
2018-Feb-16 05:00N 54°23' W 005°19'5 9.8
2018-Feb-16 04:30N 54°28' W 005°18'5 9.3
2018-Feb-16 04:00N 54°33' W 005°17'4 8.7
2018-Feb-16 03:30N 54°37' W 005°17'4 8.3
2018-Feb-16 03:00N 54°41' W 005°17'4 8.0
2018-Feb-16 02:30N 54°45' W 005°18'4 7.7
2018-Feb-16 02:00N 54°49' W 005°17'4 7.4
2018-Feb-16 01:30N 54°53' W 005°17'50 9.0
2018-Feb-15 19:55N 55°42' W 004°59'410.3
2018-Feb-15 19:30N 55°46' W 004°58'510.1
2018-Feb-15 19:00N 55°51' W 004°57'510.0
2018-Feb-15 18:30N 55°56' W 004°54'5 0.1
2018-Feb-13 19:48N 55°58' W 004°46'2 6.7
2018-Feb-13 19:30N 55°58' W 004°50'3 6.7
2018-Feb-13 19:00N 55°56' W 004°55'3 6.8
2018-Feb-13 18:30N 55°53' W 004°56'4 7.2
2018-Feb-13 18:00N 55°49' W 004°57'4 7.3
2018-Feb-13 17:30N 55°46' W 004°58'4 6.8
2018-Feb-13 16:58N 55°42' W 004°59'45 9.7
2018-Feb-13 12:17N 54°58' W 005°17'310.2
2018-Feb-13 12:01N 54°55' W 005°16'510.3
2018-Feb-13 11:31N 54°50' W 005°14'510.0
2018-Feb-13 11:00N 54°45' W 005°12'5 9.4
2018-Feb-13 10:31N 54°40' W 005°10'5 8.9
2018-Feb-13 09:59N 54°36' W 005°09'  

Dump ship's entire track history